Aspen Park, Colorado
Current Conditions -  °F | °C
As of 3:53 PM on Tuesday 27 Jan 2015 (Local Time) from KAPA Reporting Station
Scattered Clouds Scattered Clouds  
Wind Chill: 70°   Ceiling: Unl
Heat Index: 70°   Visibility: 10mi
Dew Point: 14°   Wind: 10mph
Humidity: 12%   Direction: 180°S
Pressure: 30.03"   Gusts: NA
Location:  39.4975°N, 105.289°W
Report Text: KAPA 272253Z 18009KT 10SM FEW150 SCT220 21/M10 A3003 RMK AO2 SLP121 T02111100
Loading
Personal Weather Stations






























Interactive Weather Map New forecast layout! Learn more

10-Day Weather Forecast

Advertisements
Track Severe Weather on mobile